createdAt,value
2023-02-11T09:12:26.826Z,103022.56
2023-02-11T09:15:02.989Z,103029.50
2023-02-11T09:17:51.265Z,103032.69
2023-02-11T09:20:22.317Z,103036.81
2023-02-11T09:22:50.056Z,103033.53
2023-02-11T09:25:17.478Z,103044.66
2023-02-11T09:27:47.101Z,103035.91
2023-02-11T09:30:16.341Z,103046.13
2023-02-11T09:32:44.179Z,103040.97
2023-02-11T09:35:12.362Z,103048.59
2023-02-11T09:37:46.268Z,103041.50
2023-02-11T09:40:18.596Z,103047.59
2023-02-11T09:43:38.023Z,103048.50
2023-02-11T09:46:05.789Z,103042.34
2023-02-11T09:48:41.928Z,103040.47
2023-02-11T09:55:39.340Z,103046.25
2023-02-11T09:58:07.129Z,103047.09
2023-02-11T10:00:43.114Z,103051.28
2023-02-11T10:03:15.714Z,103055.47
2023-02-11T10:05:56.282Z,103075.28
2023-02-11T10:08:25.736Z,103077.69
2023-02-11T10:10:58.196Z,103083.59
2023-02-11T10:13:49.086Z,103081.00
2023-02-11T10:16:39.679Z,103075.75
2023-02-11T10:19:25.077Z,103080.91
2023-02-11T10:22:07.012Z,103078.25
2023-02-11T10:24:35.297Z,103082.59
2023-02-11T10:27:15.054Z,103079.13
2023-02-11T10:29:57.495Z,103085.13
2023-02-11T10:32:48.569Z,103076.44
2023-02-11T10:35:18.318Z,103085.75
2023-02-11T10:37:45.528Z,103083.28
2023-02-11T10:40:18.698Z,103083.28
2023-02-11T10:42:49.384Z,103082.25
2023-02-11T10:45:22.205Z,103079.66
2023-02-11T10:47:48.824Z,103085.75
2023-02-11T10:50:27.657Z,103083.00
2023-02-11T10:53:12.365Z,103087.25
2023-02-11T10:55:49.010Z,103092.13
2023-02-11T10:58:25.546Z,103089.53
2023-02-11T11:00:55.206Z,103085.28
2023-02-11T11:03:25.301Z,103082.63
2023-02-11T11:05:58.456Z,103083.41
2023-02-11T11:08:46.686Z,103085.81
2023-02-11T11:11:16.150Z,103086.66
2023-02-11T11:13:58.246Z,103087.44
2023-02-11T11:16:35.129Z,103085.75
2023-02-11T11:19:07.536Z,103092.75
2023-02-11T11:21:41.222Z,103101.28
2023-02-11T11:24:19.932Z,103099.59
2023-02-11T11:26:52.895Z,103093.47
2023-02-11T11:29:43.395Z,103095.97
2023-02-11T11:32:20.716Z,103094.22
2023-02-11T11:34:55.595Z,103090.91
2023-02-11T11:37:37.064Z,103087.28
2023-02-11T11:40:11.420Z,103087.13
2023-02-11T11:42:39.784Z,103089.03
2023-02-11T11:45:15.163Z,103088.94
2023-02-11T11:47:47.653Z,103092.16
2023-02-11T11:50:28.985Z,103091.22
2023-02-11T11:53:04.511Z,103087.81
2023-02-11T11:55:38.691Z,103093.81
2023-02-11T11:58:06.926Z,103094.00
2023-02-11T12:00:52.357Z,103083.47
2023-02-11T12:03:21.782Z,103075.56
2023-02-11T12:06:09.485Z,103085.00
2023-02-11T12:09:07.898Z,103086.66
2023-02-11T12:12:06.280Z,103079.66
2023-02-11T12:15:11.719Z,103076.22
2023-02-11T12:18:06.604Z,103070.97
2023-02-11T12:20:51.669Z,103072.47
2023-02-11T12:23:53.319Z,103081.94
2023-02-11T12:26:23.443Z,103089.69
2023-02-11T12:29:12.995Z,103093.31
2023-02-11T12:31:44.072Z,103088.94
2023-02-11T12:34:52.821Z,103075.06
2023-02-11T12:37:37.823Z,103083.63
2023-02-11T12:40:04.353Z,103071.44
2023-02-11T12:43:17.409Z,103068.84
2023-02-11T12:45:58.354Z,103068.00
2023-02-11T12:49:10.462Z,103071.13
2023-02-11T12:51:45.990Z,103073.72
2023-02-11T12:54:25.478Z,103069.28
2023-02-11T12:57:06.748Z,103072.78
2023-02-11T12:59:36.334Z,103069.28
2023-02-11T13:02:28.416Z,103058.84
2023-02-11T13:05:01.076Z,103051.81
2023-02-11T13:07:41.712Z,103052.66
2023-02-11T13:14:41.050Z,103046.47
2023-02-11T13:17:19.878Z,103054.00
2023-02-11T13:19:58.554Z,103050.66
2023-02-11T13:22:48.667Z,103053.09
2023-02-11T13:25:44.176Z,103047.84
2023-02-11T13:28:45.554Z,103053.78
2023-02-11T13:31:15.996Z,103043.00
2023-02-11T13:33:44.325Z,103045.91
2023-02-11T13:36:14.665Z,103051.94
2023-02-11T13:38:41.830Z,103058.75
2023-02-11T13:41:17.466Z,103062.81
2023-02-11T13:43:45.214Z,103055.81
2023-02-11T13:50:47.784Z,103049.41
2023-02-11T13:53:16.183Z,103054.41
2023-02-11T13:55:46.123Z,103048.16
2023-02-11T13:58:15.414Z,103053.19
2023-02-11T14:00:50.197Z,103056.75
2023-02-11T14:03:41.868Z,103053.94
2023-02-11T14:06:27.253Z,103054.16
2023-02-11T14:13:19.627Z,103046.56
2023-02-11T14:15:49.703Z,103056.94
2023-02-11T14:18:45.587Z,103046.41
2023-02-11T14:21:42.666Z,103049.63
2023-02-11T14:24:12.960Z,103054.72
2023-02-11T14:26:56.690Z,103054.53
2023-02-11T14:29:53.804Z,103049.19
2023-02-11T14:32:34.936Z,103044.09
2023-02-11T14:35:29.561Z,103046.59
2023-02-11T14:38:20.812Z,103051.88
2023-02-11T14:41:13.620Z,103047.44
2023-02-11T14:43:45.368Z,103051.44
2023-02-11T14:46:12.022Z,103053.81
2023-02-11T14:48:44.721Z,103047.78
2023-02-11T14:51:16.068Z,103054.56
2023-02-11T14:53:49.988Z,103060.47
2023-02-11T14:56:22.431Z,103057.06
2023-02-11T14:58:51.821Z,103060.56
2023-02-11T15:01:32.571Z,103064.09
2023-02-11T15:04:01.283Z,103059.75
2023-02-11T15:06:30.850Z,103069.97
2023-02-11T15:09:00.942Z,103067.03
2023-02-11T15:11:31.766Z,103071.44
2023-02-11T15:14:06.927Z,103070.63
2023-02-11T15:16:35.026Z,103072.38
2023-02-11T15:19:05.254Z,103065.34
2023-02-11T15:21:34.256Z,103063.59
2023-02-11T15:24:20.410Z,103064.50
2023-02-11T15:27:04.657Z,103073.41
2023-02-11T15:29:39.899Z,103075.72
2023-02-11T15:32:09.531Z,103078.75
2023-02-11T15:34:36.471Z,103078.59
2023-02-11T15:37:04.370Z,103087.22
2023-02-11T15:39:36.718Z,103089.97
2023-02-11T15:42:23.264Z,103087.22
2023-02-11T15:45:08.925Z,103085.53
2023-02-11T15:47:35.920Z,103092.41
2023-02-11T15:50:02.959Z,103091.63
2023-02-11T15:52:30.131Z,103089.97
2023-02-11T15:55:01.543Z,103089.13
2023-02-11T15:57:28.905Z,103085.03
2023-02-11T15:59:56.296Z,103089.22
2023-02-11T16:02:29.970Z,103087.53
2023-02-11T16:05:03.757Z,103091.97
2023-02-11T16:07:45.279Z,103091.97
2023-02-11T16:10:31.269Z,103095.34
2023-02-11T16:13:07.028Z,103103.84
2023-02-11T16:15:33.860Z,103092.56
2023-02-11T16:18:04.134Z,103096.81
2023-02-11T16:20:31.019Z,103100.53
2023-02-11T16:22:57.742Z,103106.53
2023-02-11T16:25:24.320Z,103104.88
2023-02-11T16:27:52.881Z,103111.72
2023-02-11T16:30:38.255Z,103106.63
2023-02-11T16:33:05.466Z,103114.41
2023-02-11T16:35:32.389Z,103115.31
2023-02-11T16:37:58.930Z,103118.00
2023-02-11T16:40:25.501Z,103115.50
2023-02-11T16:42:53.371Z,103116.41
2023-02-11T16:45:20.028Z,103121.66
2023-02-11T16:47:46.841Z,103117.50
2023-02-11T16:50:22.223Z,103120.19
2023-02-11T16:52:49.207Z,103116.75
2023-02-11T16:55:15.927Z,103118.56
2023-02-11T16:57:42.500Z,103117.66
2023-02-11T17:00:10.330Z,103120.41
2023-02-11T17:02:38.559Z,103120.50
2023-02-11T17:05:07.681Z,103117.06
2023-02-11T17:07:34.275Z,103119.72
2023-02-11T17:10:00.918Z,103127.59
2023-02-11T17:12:27.657Z,103122.50
2023-02-11T17:14:54.336Z,103133.78
2023-02-11T17:17:23.515Z,103132.13
2023-02-11T17:19:51.106Z,103132.97
2023-02-11T17:22:18.456Z,103133.09
2023-02-11T17:24:45.013Z,103130.69
2023-02-11T17:27:11.924Z,103140.22
2023-02-11T17:29:38.528Z,103148.06
2023-02-11T17:32:05.218Z,103153.34
2023-02-11T17:34:32.429Z,103152.59
2023-02-11T17:37:00.149Z,103156.09
2023-02-11T17:39:27.530Z,103150.03
2023-02-11T17:41:54.113Z,103155.25
2023-02-11T17:44:20.714Z,103146.63
2023-02-11T17:46:47.367Z,103143.38
2023-02-11T17:49:14.061Z,103144.19
2023-02-11T17:51:40.876Z,103149.47
2023-02-11T17:54:11.122Z,103161.66
2023-02-11T17:56:37.840Z,103160.81
2023-02-11T17:59:06.226Z,103170.34
2023-02-11T18:01:34.070Z,103173.13
2023-02-11T18:04:00.954Z,103167.16
2023-02-11T18:06:29.071Z,103169.84
2023-02-11T18:08:58.033Z,103169.09
2023-02-11T18:11:25.844Z,103175.09
2023-02-11T18:13:54.479Z,103182.88
2023-02-11T18:16:21.960Z,103189.81
2023-02-11T18:18:50.165Z,103190.66
2023-02-11T18:21:19.877Z,103185.78
2023-02-11T18:23:46.985Z,103190.75
2023-02-11T18:26:15.592Z,103187.47
2023-02-11T18:28:45.308Z,103189.03
2023-02-11T18:31:14.088Z,103198.75
2023-02-11T18:33:41.637Z,103194.47
2023-02-11T18:36:11.059Z,103194.53
2023-02-11T18:38:38.472Z,103188.50
2023-02-11T18:41:05.532Z,103182.56
2023-02-11T18:43:33.701Z,103188.50
2023-02-11T18:46:02.300Z,103194.63
2023-02-11T18:48:29.152Z,103204.06
2023-02-11T18:50:56.368Z,103201.47
2023-02-11T18:53:23.664Z,103204.91
2023-02-11T18:55:53.153Z,103202.41
2023-02-11T18:58:21.250Z,103202.41
2023-02-11T19:00:48.817Z,103202.41
2023-02-11T19:03:15.983Z,103202.41
2023-02-11T19:05:44.143Z,103217.13
2023-02-11T19:08:11.119Z,103217.13
2023-02-11T19:10:42.879Z,103219.78
2023-02-11T19:13:09.768Z,103225.91
2023-02-11T19:15:42.068Z,103225.81
2023-02-11T19:18:08.860Z,103217.34
2023-02-11T19:20:35.501Z,103219.94
2023-02-11T19:23:02.037Z,103224.28
2023-02-11T19:25:28.592Z,103231.97
2023-02-11T19:27:55.151Z,103228.53
2023-02-11T19:30:21.821Z,103226.13
2023-02-11T19:32:52.446Z,103224.34
2023-02-11T19:35:22.021Z,103223.44
2023-02-11T19:37:48.718Z,103225.19
2023-02-11T19:40:19.197Z,103223.53
2023-02-11T19:42:45.754Z,103228.78
2023-02-11T19:45:12.562Z,103235.66
2023-02-11T19:47:39.331Z,103235.66
2023-02-11T19:50:06.635Z,103234.81
2023-02-11T19:52:33.235Z,103237.44
2023-02-11T19:55:00.785Z,103246.06
2023-02-11T19:57:27.305Z,103249.44
2023-02-11T19:59:55.039Z,103241.81
2023-02-11T20:02:21.729Z,103246.06
2023-02-11T20:04:48.523Z,103246.16
2023-02-11T20:07:15.158Z,103246.22
2023-02-11T20:09:42.559Z,103240.97
2023-02-11T20:12:09.794Z,103255.59
2023-02-11T20:14:36.497Z,103250.41
2023-02-11T20:17:03.375Z,103253.84
2023-02-11T20:19:30.685Z,103253.09
2023-02-11T20:21:57.415Z,103248.66
2023-02-11T20:24:25.329Z,103255.69
2023-02-11T20:26:55.309Z,103252.25
2023-02-11T20:29:23.452Z,103250.41
2023-02-11T20:31:50.666Z,103261.63
2023-02-11T20:34:18.133Z,103270.25
2023-02-11T20:36:51.531Z,103267.72
2023-02-11T20:39:21.604Z,103269.41
2023-02-11T20:41:49.076Z,103264.28
2023-02-11T20:44:15.764Z,103263.38
2023-02-11T20:46:48.259Z,103260.03
2023-02-11T20:49:18.949Z,103260.13
2023-02-11T20:51:46.153Z,103259.31
2023-02-11T20:54:18.204Z,103269.69
2023-02-11T20:56:47.728Z,103273.06
2023-02-11T20:59:15.148Z,103269.69
2023-02-11T21:01:44.678Z,103279.94
2023-02-11T21:04:17.438Z,103282.53
2023-02-11T21:06:47.351Z,103285.13
2023-02-11T21:09:19.909Z,103292.88
2023-02-11T21:11:46.891Z,103288.63
2023-02-11T21:14:13.921Z,103290.22
2023-02-11T21:16:41.247Z,103287.72
2023-02-11T21:19:08.018Z,103294.66
2023-02-11T21:21:36.263Z,103296.31
2023-02-11T21:24:03.329Z,103290.28
2023-02-11T21:26:29.944Z,103288.63
2023-02-11T21:28:56.801Z,103293.81
2023-02-11T21:31:29.161Z,103284.34
2023-02-11T21:33:59.271Z,103283.56
2023-02-11T21:36:27.746Z,103294.78
2023-02-11T21:38:54.570Z,103291.28
2023-02-11T21:41:22.492Z,103298.19
2023-02-11T21:43:50.252Z,103293.94
2023-02-11T21:46:17.627Z,103299.06
2023-02-11T21:48:44.449Z,103308.66
2023-02-11T21:51:17.439Z,103293.94
2023-02-11T21:53:44.376Z,103306.06
2023-02-11T21:56:18.400Z,103302.63
2023-02-11T21:58:46.309Z,103313.84
2023-02-11T22:01:15.780Z,103312.91
2023-02-11T22:03:42.989Z,103319.03
2023-02-11T22:06:11.572Z,103310.50
2023-02-11T22:08:39.535Z,103310.50
2023-02-11T22:11:07.741Z,103310.50
2023-02-11T22:13:34.753Z,103311.31
2023-02-11T22:16:04.586Z,103310.41
2023-02-11T22:18:31.762Z,103311.41
2023-02-11T22:21:04.380Z,103309.56
2023-02-11T22:23:31.087Z,103307.91
2023-02-11T22:25:58.723Z,103300.19
2023-02-11T22:28:26.141Z,103302.72
2023-02-11T22:30:56.955Z,103307.09
2023-02-11T22:33:28.022Z,103315.66
2023-02-11T22:36:19.197Z,103304.47
2023-02-11T22:38:46.657Z,103303.63
2023-02-11T22:41:13.436Z,103301.09
2023-02-11T22:43:41.578Z,103309.69
2023-02-11T22:46:08.757Z,103308.03
2023-02-11T22:48:35.836Z,103304.50
2023-02-11T22:51:14.947Z,103307.09
2023-02-11T22:53:43.674Z,103307.09
2023-02-11T22:56:15.844Z,103312.28
2023-02-11T22:58:42.886Z,103312.38
2023-02-11T23:01:09.752Z,103318.38
2023-02-11T23:03:36.615Z,103321.81
2023-02-11T23:06:03.441Z,103322.66
2023-02-11T23:08:31.061Z,103317.56
2023-02-11T23:11:07.055Z,103326.25
2023-02-11T23:13:37.866Z,103339.97
2023-02-11T23:16:30.703Z,103340.03
2023-02-11T23:19:00.330Z,103328.84
2023-02-11T23:21:31.381Z,103328.84
2023-02-11T23:24:00.677Z,103339.97
2023-02-11T23:26:28.659Z,103340.75
2023-02-11T23:28:59.026Z,103338.22
2023-02-11T23:31:29.547Z,103339.19
2023-02-11T23:33:56.613Z,103344.38
2023-02-11T23:36:23.535Z,103338.38
2023-02-11T23:38:50.726Z,103340.03
2023-02-11T23:41:17.656Z,103340.78
2023-02-11T23:43:44.892Z,103345.97
2023-02-11T23:46:11.772Z,103340.03
2023-02-11T23:48:40.302Z,103345.22
2023-02-11T23:51:09.532Z,103336.59
2023-02-11T23:53:37.691Z,103336.69
2023-02-11T23:56:15.838Z,103340.13
2023-02-11T23:58:44.657Z,103348.72
